sensor_id;sensor_type;location;lat;lon;timestamp;pressure;altitude;pressure_sealevel;temperature
20867;BMP280;10593;48.398;10.698;2023-03-05T00:00:21;96415.84;;;9.48
20867;BMP280;10593;48.398;10.698;2023-03-05T00:02:47;96417.53;;;9.47
20867;BMP280;10593;48.398;10.698;2023-03-05T00:05:13;96417.53;;;9.47
20867;BMP280;10593;48.398;10.698;2023-03-05T00:07:38;96414.13;;;9.47
20867;BMP280;10593;48.398;10.698;2023-03-05T00:10:05;96415.84;;;9.46
20867;BMP280;10593;48.398;10.698;2023-03-05T00:12:31;96414.97;;;9.47
20867;BMP280;10593;48.398;10.698;2023-03-05T00:14:56;96411.56;;;9.45
20867;BMP280;10593;48.398;10.698;2023-03-05T00:17:22;96411.56;;;9.45
20867;BMP280;10593;48.398;10.698;2023-03-05T00:19:48;96407.31;;;9.44
20867;BMP280;10593;48.398;10.698;2023-03-05T00:22:13;96413.31;;;9.45
20867;BMP280;10593;48.398;10.698;2023-03-05T00:24:39;96411.59;;;9.44
20867;BMP280;10593;48.398;10.698;2023-03-05T00:27:05;96398.78;;;9.42
20867;BMP280;10593;48.398;10.698;2023-03-05T00:29:30;96410.75;;;9.43
20867;BMP280;10593;48.398;10.698;2023-03-05T00:31:56;96406.50;;;9.42
20867;BMP280;10593;48.398;10.698;2023-03-05T00:34:21;96409.06;;;9.42
20867;BMP280;10593;48.398;10.698;2023-03-05T00:36:50;96403.09;;;9.42
20867;BMP280;10593;48.398;10.698;2023-03-05T00:39:19;96403.09;;;9.42
20867;BMP280;10593;48.398;10.698;2023-03-05T00:41:45;96406.50;;;9.42
20867;BMP280;10593;48.398;10.698;2023-03-05T00:44:11;96403.94;;;9.41
20867;BMP280;10593;48.398;10.698;2023-03-05T00:46:37;96386.84;;;9.40
20867;BMP280;10593;48.398;10.698;2023-03-05T00:49:03;96391.97;;;9.40
20867;BMP280;10593;48.398;10.698;2023-03-05T00:51:29;96387.72;;;9.39
20867;BMP280;10593;48.398;10.698;2023-03-05T00:53:55;96391.97;;;9.40
20867;BMP280;10593;48.398;10.698;2023-03-05T00:56:21;96387.72;;;9.39
20867;BMP280;10593;48.398;10.698;2023-03-05T00:58:47;96380.03;;;9.39
20867;BMP280;10593;48.398;10.698;2023-03-05T01:01:13;96387.72;;;9.39
20867;BMP280;10593;48.398;10.698;2023-03-05T01:03:39;96379.19;;;9.38
20867;BMP280;10593;48.398;10.698;2023-03-05T01:06:09;96382.59;;;9.39
20867;BMP280;10593;48.398;10.698;2023-03-05T01:08:36;96377.50;;;9.37
20867;BMP280;10593;48.398;10.698;2023-03-05T01:11:04;96380.94;;;9.36
20867;BMP280;10593;48.398;10.698;2023-03-05T01:13:30;96386.06;;;9.36
20867;BMP280;10593;48.398;10.698;2023-03-05T01:15:56;96374.94;;;9.36
20867;BMP280;10593;48.398;10.698;2023-03-05T01:18:21;96377.50;;;9.36
20867;BMP280;10593;48.398;10.698;2023-03-05T01:20:47;96366.41;;;9.35
20867;BMP280;10593;48.398;10.698;2023-03-05T01:23:14;96368.97;;;9.35
20867;BMP280;10593;48.398;10.698;2023-03-05T01:25:40;96369.81;;;9.36
20867;BMP280;10593;48.398;10.698;2023-03-05T01:28:06;96364.72;;;9.34
20867;BMP280;10593;48.398;10.698;2023-03-05T01:30:33;96358.72;;;9.34
20867;BMP280;10593;48.398;10.698;2023-03-05T01:32:58;96356.16;;;9.34
20867;BMP280;10593;48.398;10.698;2023-03-05T01:35:25;96352.72;;;9.33
20867;BMP280;10593;48.398;10.698;2023-03-05T01:37:52;96357.03;;;9.34
20867;BMP280;10593;48.398;10.698;2023-03-05T01:40:26;96354.47;;;9.33
20867;BMP280;10593;48.398;10.698;2023-03-05T01:43:21;96352.75;;;9.32
20867;BMP280;10593;48.398;10.698;2023-03-05T01:46:36;96343.38;;;9.29
20867;BMP280;10593;48.398;10.698;2023-03-05T01:49:21;96345.13;;;9.27
20867;BMP280;10593;48.398;10.698;2023-03-05T01:52:03;96335.75;;;9.25
20867;BMP280;10593;48.398;10.698;2023-03-05T01:54:46;96337.44;;;9.26
20867;BMP280;10593;48.398;10.698;2023-03-05T01:57:19;96340.00;;;9.26
20867;BMP280;10593;48.398;10.698;2023-03-05T01:59:50;96334.03;;;9.25
20867;BMP280;10593;48.398;10.698;2023-03-05T02:02:18;96328.91;;;9.25
20867;BMP280;10593;48.398;10.698;2023-03-05T02:04:54;96328.03;;;9.26
20867;BMP280;10593;48.398;10.698;2023-03-05T02:07:21;96320.34;;;9.26
20867;BMP280;10593;48.398;10.698;2023-03-05T02:09:48;96317.78;;;9.26
20867;BMP280;10593;48.398;10.698;2023-03-05T02:12:14;96311.81;;;9.26
20867;BMP280;10593;48.398;10.698;2023-03-05T02:14:44;96304.97;;;9.26
20867;BMP280;10593;48.398;10.698;2023-03-05T02:17:11;96308.41;;;9.25
20867;BMP280;10593;48.398;10.698;2023-03-05T02:19:51;96306.69;;;9.26
20867;BMP280;10593;48.398;10.698;2023-03-05T02:22:19;96304.16;;;9.24
20867;BMP280;10593;48.398;10.698;2023-03-05T02:24:44;96297.28;;;9.25
20867;BMP280;10593;48.398;10.698;2023-03-05T02:27:13;96289.59;;;9.25
20867;BMP280;10593;48.398;10.698;2023-03-05T02:29:44;96294.72;;;9.25
20867;BMP280;10593;48.398;10.698;2023-03-05T02:32:11;96294.72;;;9.25
20867;BMP280;10593;48.398;10.698;2023-03-05T02:34:38;96294.72;;;9.25
20867;BMP280;10593;48.398;10.698;2023-03-05T02:37:04;96287.91;;;9.24
20867;BMP280;10593;48.398;10.698;2023-03-05T02:39:33;96283.63;;;9.24
20867;BMP280;10593;48.398;10.698;2023-03-05T02:41:59;96288.75;;;9.24
20867;BMP280;10593;48.398;10.698;2023-03-05T02:44:25;96285.34;;;9.24
20867;BMP280;10593;48.398;10.698;2023-03-05T02:46:51;96283.66;;;9.23
20867;BMP280;10593;48.398;10.698;2023-03-05T02:49:17;96280.22;;;9.24
20867;BMP280;10593;48.398;10.698;2023-03-05T02:51:43;96275.94;;;9.23
20867;BMP280;10593;48.398;10.698;2023-03-05T02:54:08;96273.38;;;9.23
20867;BMP280;10593;48.398;10.698;2023-03-05T02:56:34;96278.53;;;9.23
20867;BMP280;10593;48.398;10.698;2023-03-05T02:59:02;96270.84;;;9.23
20867;BMP280;10593;48.398;10.698;2023-03-05T03:01:28;96264.00;;;9.22
20867;BMP280;10593;48.398;10.698;2023-03-05T03:03:54;96266.56;;;9.22
20867;BMP280;10593;48.398;10.698;2023-03-05T03:06:20;96264.00;;;9.22
20867;BMP280;10593;48.398;10.698;2023-03-05T03:08:46;96255.50;;;9.21
20867;BMP280;10593;48.398;10.698;2023-03-05T03:11:12;96257.19;;;9.21
20867;BMP280;10593;48.398;10.698;2023-03-05T03:13:38;96263.19;;;9.21
20867;BMP280;10593;48.398;10.698;2023-03-05T03:16:11;96258.06;;;9.21
20867;BMP280;10593;48.398;10.698;2023-03-05T03:18:37;96256.31;;;9.20
20867;BMP280;10593;48.398;10.698;2023-03-05T03:21:04;96254.63;;;9.21
20867;BMP280;10593;48.398;10.698;2023-03-05T03:23:30;96254.63;;;9.19
20867;BMP280;10593;48.398;10.698;2023-03-05T03:25:56;96246.06;;;9.20
20867;BMP280;10593;48.398;10.698;2023-03-05T03:28:22;96249.50;;;9.19
20867;BMP280;10593;48.398;10.698;2023-03-05T03:30:47;96240.13;;;9.18
20867;BMP280;10593;48.398;10.698;2023-03-05T03:33:13;96243.53;;;9.19
20867;BMP280;10593;48.398;10.698;2023-03-05T03:35:39;96236.72;;;9.18
20867;BMP280;10593;48.398;10.698;2023-03-05T03:38:04;96241.84;;;9.18
20867;BMP280;10593;48.398;10.698;2023-03-05T03:40:30;96244.41;;;9.18
20867;BMP280;10593;48.398;10.698;2023-03-05T03:42:56;96241.84;;;9.18
20867;BMP280;10593;48.398;10.698;2023-03-05T03:45:22;96240.16;;;9.17
20867;BMP280;10593;48.398;10.698;2023-03-05T03:47:49;96238.44;;;9.17
20867;BMP280;10593;48.398;10.698;2023-03-05T03:50:17;96236.72;;;9.16
20867;BMP280;10593;48.398;10.698;2023-03-05T03:52:43;96235.03;;;9.17
20867;BMP280;10593;48.398;10.698;2023-03-05T03:55:09;96232.47;;;9.17
20867;BMP280;10593;48.398;10.698;2023-03-05T03:57:36;96230.75;;;9.17
20867;BMP280;10593;48.398;10.698;2023-03-05T04:00:03;96226.47;;;9.16
20867;BMP280;10593;48.398;10.698;2023-03-05T04:02:32;96232.47;;;9.17
20867;BMP280;10593;48.398;10.698;2023-03-05T04:04:58;96222.22;;;9.15
20867;BMP280;10593;48.398;10.698;2023-03-05T04:07:24;96217.97;;;9.14
20867;BMP280;10593;48.398;10.698;2023-03-05T04:09:49;96218.84;;;9.15
20867;BMP280;10593;48.398;10.698;2023-03-05T04:12:15;96217.09;;;9.15
20867;BMP280;10593;48.398;10.698;2023-03-05T04:14:47;96211.16;;;9.15
20867;BMP280;10593;48.398;10.698;2023-03-05T04:17:15;96215.41;;;9.14
20867;BMP280;10593;48.398;10.698;2023-03-05T04:19:41;96213.69;;;9.15
20867;BMP280;10593;48.398;10.698;2023-03-05T04:22:15;96211.16;;;9.15
20867;BMP280;10593;48.398;10.698;2023-03-05T04:24:42;96201.72;;;9.15
20867;BMP280;10593;48.398;10.698;2023-03-05T04:27:08;96194.91;;;9.13
20867;BMP280;10593;48.398;10.698;2023-03-05T04:29:34;96201.72;;;9.14
20867;BMP280;10593;48.398;10.698;2023-03-05T04:32:01;96204.28;;;9.14
20867;BMP280;10593;48.398;10.698;2023-03-05T04:34:27;96203.47;;;9.13
20867;BMP280;10593;48.398;10.698;2023-03-05T04:36:52;96194.91;;;9.13
20867;BMP280;10593;48.398;10.698;2023-03-05T04:39:18;96194.03;;;9.14
20867;BMP280;10593;48.398;10.698;2023-03-05T04:41:46;96188.91;;;9.14
20867;BMP280;10593;48.398;10.698;2023-03-05T04:44:13;96192.34;;;9.13
20867;BMP280;10593;48.398;10.698;2023-03-05T04:46:38;96192.34;;;9.13
20867;BMP280;10593;48.398;10.698;2023-03-05T04:49:04;96192.34;;;9.13
20867;BMP280;10593;48.398;10.698;2023-03-05T04:51:30;96191.47;;;9.14
20867;BMP280;10593;48.398;10.698;2023-03-05T04:53:56;96189.78;;;9.13
20867;BMP280;10593;48.398;10.698;2023-03-05T04:56:22;96187.22;;;9.13
20867;BMP280;10593;48.398;10.698;2023-03-05T04:58:47;96191.50;;;9.12
20867;BMP280;10593;48.398;10.698;2023-03-05T05:01:13;96191.50;;;9.12
20867;BMP280;10593;48.398;10.698;2023-03-05T05:03:39;96184.69;;;9.11
20867;BMP280;10593;48.398;10.698;2023-03-05T05:06:05;96187.22;;;9.13
20867;BMP280;10593;48.398;10.698;2023-03-05T05:08:31;96182.13;;;9.11
20867;BMP280;10593;48.398;10.698;2023-03-05T05:11:03;96184.69;;;9.11
20867;BMP280;10593;48.398;10.698;2023-03-05T05:13:30;96184.69;;;9.11
20867;BMP280;10593;48.398;10.698;2023-03-05T05:15:57;96177.00;;;9.10
20867;BMP280;10593;48.398;10.698;2023-03-05T05:18:24;96178.72;;;9.11
20867;BMP280;10593;48.398;10.698;2023-03-05T05:20:50;96171.03;;;9.11
20867;BMP280;10593;48.398;10.698;2023-03-05T05:23:16;96173.59;;;9.11
20867;BMP280;10593;48.398;10.698;2023-03-05T05:25:43;96167.63;;;9.10
20867;BMP280;10593;48.398;10.698;2023-03-05T05:28:11;96173.59;;;9.11
20867;BMP280;10593;48.398;10.698;2023-03-05T05:30:37;96165.06;;;9.10
20867;BMP280;10593;48.398;10.698;2023-03-05T05:33:03;96163.38;;;9.09
20867;BMP280;10593;48.398;10.698;2023-03-05T05:35:28;96163.38;;;9.09
20867;BMP280;10593;48.398;10.698;2023-03-05T05:37:54;96171.06;;;9.09
20867;BMP280;10593;48.398;10.698;2023-03-05T05:40:20;96171.94;;;9.08
20867;BMP280;10593;48.398;10.698;2023-03-05T05:42:45;96171.06;;;9.09
20867;BMP280;10593;48.398;10.698;2023-03-05T05:45:11;96177.06;;;9.08
20867;BMP280;10593;48.398;10.698;2023-03-05T05:47:37;96173.63;;;9.08
20867;BMP280;10593;48.398;10.698;2023-03-05T05:50:04;96169.38;;;9.08
20867;BMP280;10593;48.398;10.698;2023-03-05T05:52:30;96177.88;;;9.09
20867;BMP280;10593;48.398;10.698;2023-03-05T05:54:55;96173.63;;;9.08
20867;BMP280;10593;48.398;10.698;2023-03-05T05:57:21;96172.81;;;9.07
20867;BMP280;10593;48.398;10.698;2023-03-05T05:59:47;96171.94;;;9.07
20867;BMP280;10593;48.398;10.698;2023-03-05T06:02:12;96171.06;;;9.08
20867;BMP280;10593;48.398;10.698;2023-03-05T06:04:38;96174.50;;;9.07
20867;BMP280;10593;48.398;10.698;2023-03-05T06:07:05;96171.06;;;9.08
20867;BMP280;10593;48.398;10.698;2023-03-05T06:09:33;96176.19;;;9.06
20867;BMP280;10593;48.398;10.698;2023-03-05T06:11:59;96172.81;;;9.07
20867;BMP280;10593;48.398;10.698;2023-03-05T06:14:25;96174.50;;;9.07
20867;BMP280;10593;48.398;10.698;2023-03-05T06:16:50;96174.50;;;9.07
20867;BMP280;10593;48.398;10.698;2023-03-05T06:19:16;96177.06;;;9.07
20867;BMP280;10593;48.398;10.698;2023-03-05T06:21:42;96171.94;;;9.07
20867;BMP280;10593;48.398;10.698;2023-03-05T06:24:09;96171.06;;;9.06
20867;BMP280;10593;48.398;10.698;2023-03-05T06:26:34;96171.06;;;9.06
20867;BMP280;10593;48.398;10.698;2023-03-05T06:29:00;96167.69;;;9.06
20867;BMP280;10593;48.398;10.698;2023-03-05T06:31:27;96165.94;;;9.06
20867;BMP280;10593;48.398;10.698;2023-03-05T06:33:57;96173.63;;;9.08
20867;BMP280;10593;48.398;10.698;2023-03-05T06:36:24;96171.94;;;9.07
20867;BMP280;10593;48.398;10.698;2023-03-05T06:38:51;96174.50;;;9.07
20867;BMP280;10593;48.398;10.698;2023-03-05T06:41:21;96172.81;;;9.07
20867;BMP280;10593;48.398;10.698;2023-03-05T06:43:47;96171.06;;;9.06
20867;BMP280;10593;48.398;10.698;2023-03-05T06:48:42;96173.63;;;9.08
20867;BMP280;10593;48.398;10.698;2023-03-05T06:51:23;96173.63;;;9.08
20867;BMP280;10593;48.398;10.698;2023-03-05T06:53:49;96173.63;;;9.08
20867;BMP280;10593;48.398;10.698;2023-03-05T06:56:17;96171.06;;;9.08
20867;BMP280;10593;48.398;10.698;2023-03-05T06:58:45;96168.50;;;9.08
20867;BMP280;10593;48.398;10.698;2023-03-05T07:01:12;96166.81;;;9.08
20867;BMP280;10593;48.398;10.698;2023-03-05T07:03:39;96160.81;;;9.09
20867;BMP280;10593;48.398;10.698;2023-03-05T07:06:07;96167.63;;;9.10
20867;BMP280;10593;48.398;10.698;2023-03-05T07:08:33;96161.63;;;9.10
20867;BMP280;10593;48.398;10.698;2023-03-05T07:10:59;96157.38;;;9.10
20867;BMP280;10593;48.398;10.698;2023-03-05T07:13:26;96161.63;;;9.10
20867;BMP280;10593;48.398;10.698;2023-03-05T07:15:52;96159.91;;;9.12
20867;BMP280;10593;48.398;10.698;2023-03-05T07:18:18;96153.94;;;9.11
20867;BMP280;10593;48.398;10.698;2023-03-05T07:20:44;96154.78;;;9.12
20867;BMP280;10593;48.398;10.698;2023-03-05T07:23:09;96157.31;;;9.13
20867;BMP280;10593;48.398;10.698;2023-03-05T07:25:36;96165.00;;;9.13
20867;BMP280;10593;48.398;10.698;2023-03-05T07:28:04;96157.31;;;9.15
20867;BMP280;10593;48.398;10.698;2023-03-05T07:30:33;96154.75;;;9.15
20867;BMP280;10593;48.398;10.698;2023-03-05T07:32:59;96152.19;;;9.15
20867;BMP280;10593;48.398;10.698;2023-03-05T07:35:25;96144.50;;;9.15
20867;BMP280;10593;48.398;10.698;2023-03-05T07:37:50;96152.16;;;9.16
20867;BMP280;10593;48.398;10.698;2023-03-05T07:40:17;96149.56;;;9.18
20867;BMP280;10593;48.398;10.698;2023-03-05T07:42:42;96151.28;;;9.17
20867;BMP280;10593;48.398;10.698;2023-03-05T07:45:08;96149.56;;;9.18
20867;BMP280;10593;48.398;10.698;2023-03-05T07:47:34;96145.28;;;9.18
20867;BMP280;10593;48.398;10.698;2023-03-05T07:50:00;96146.97;;;9.21
20867;BMP280;10593;48.398;10.698;2023-03-05T07:52:26;96136.72;;;9.19
20867;BMP280;10593;48.398;10.698;2023-03-05T07:54:52;96140.97;;;9.20
20867;BMP280;10593;48.398;10.698;2023-03-05T07:57:17;96150.41;;;9.21
20867;BMP280;10593;48.398;10.698;2023-03-05T07:59:43;96140.13;;;9.21
20867;BMP280;10593;48.398;10.698;2023-03-05T08:02:13;96142.66;;;9.23
20867;BMP280;10593;48.398;10.698;2023-03-05T08:04:40;96140.97;;;9.23
20867;BMP280;10593;48.398;10.698;2023-03-05T08:07:06;96145.22;;;9.24
20867;BMP280;10593;48.398;10.698;2023-03-05T08:09:32;96145.22;;;9.24
20867;BMP280;10593;48.398;10.698;2023-03-05T08:11:58;96131.53;;;9.25
20867;BMP280;10593;48.398;10.698;2023-03-05T08:14:24;96142.59;;;9.26
20867;BMP280;10593;48.398;10.698;2023-03-05T08:16:50;96134.06;;;9.27
20867;BMP280;10593;48.398;10.698;2023-03-05T08:19:18;96138.34;;;9.28
20867;BMP280;10593;48.398;10.698;2023-03-05T08:21:45;96135.78;;;9.28
20867;BMP280;10593;48.398;10.698;2023-03-05T08:24:12;96130.59;;;9.29
20867;BMP280;10593;48.398;10.698;2023-03-05T08:26:39;96124.59;;;9.30
20867;BMP280;10593;48.398;10.698;2023-03-05T08:29:06;96130.59;;;9.31
20867;BMP280;10593;48.398;10.698;2023-03-05T08:31:33;96124.59;;;9.32
20867;BMP280;10593;48.398;10.698;2023-03-05T08:34:01;96126.28;;;9.33
20867;BMP280;10593;48.398;10.698;2023-03-05T08:36:28;96121.16;;;9.33
20867;BMP280;10593;48.398;10.698;2023-03-05T08:38:54;96122.84;;;9.32
20867;BMP280;10593;48.398;10.698;2023-03-05T08:41:21;96123.72;;;9.33
20867;BMP280;10593;48.398;10.698;2023-03-05T08:43:47;96120.28;;;9.32
20867;BMP280;10593;48.398;10.698;2023-03-05T08:46:14;96119.47;;;9.32
20867;BMP280;10593;48.398;10.698;2023-03-05T08:48:40;96126.28;;;9.31
20867;BMP280;10593;48.398;10.698;2023-03-05T08:51:13;96116.03;;;9.31
20867;BMP280;10593;48.398;10.698;2023-03-05T08:53:39;96115.22;;;9.31
20867;BMP280;10593;48.398;10.698;2023-03-05T08:56:06;96122.03;;;9.32
20867;BMP280;10593;48.398;10.698;2023-03-05T08:58:32;96115.22;;;9.31
20867;BMP280;10593;48.398;10.698;2023-03-05T09:00:58;96120.34;;;9.31
20867;BMP280;10593;48.398;10.698;2023-03-05T09:03:24;96116.91;;;9.32
20867;BMP280;10593;48.398;10.698;2023-03-05T09:05:50;96118.59;;;9.33
20867;BMP280;10593;48.398;10.698;2023-03-05T09:08:16;96117.72;;;9.34
20867;BMP280;10593;48.398;10.698;2023-03-05T09:10:43;96117.72;;;9.34
20867;BMP280;10593;48.398;10.698;2023-03-05T09:13:10;96112.59;;;9.34
20867;BMP280;10593;48.398;10.698;2023-03-05T09:15:36;96110.91;;;9.34
20867;BMP280;10593;48.398;10.698;2023-03-05T09:18:02;96111.72;;;9.35
20867;BMP280;10593;48.398;10.698;2023-03-05T09:20:27;96111.72;;;9.35
20867;BMP280;10593;48.398;10.698;2023-03-05T09:22:54;96108.28;;;9.36
20867;BMP280;10593;48.398;10.698;2023-03-05T09:25:19;96109.16;;;9.36
20867;BMP280;10593;48.398;10.698;2023-03-05T09:27:45;96105.72;;;9.37
20867;BMP280;10593;48.398;10.698;2023-03-05T09:30:12;96102.31;;;9.35
20867;BMP280;10593;48.398;10.698;2023-03-05T09:32:38;96105.72;;;9.37
20867;BMP280;10593;48.398;10.698;2023-03-05T09:35:05;96103.97;;;9.38
20867;BMP280;10593;48.398;10.698;2023-03-05T09:37:31;96109.91;;;9.40
20867;BMP280;10593;48.398;10.698;2023-03-05T09:39:57;96100.53;;;9.40
20867;BMP280;10593;48.398;10.698;2023-03-05T09:45:24;96100.53;;;9.40
20867;BMP280;10593;48.398;10.698;2023-03-05T09:48:11;96089.41;;;9.41
20867;BMP280;10593;48.398;10.698;2023-03-05T09:50:51;96092.84;;;9.40
20867;BMP280;10593;48.398;10.698;2023-03-05T09:55:55;96084.25;;;9.43
20867;BMP280;10593;48.398;10.698;2023-03-05T09:58:37;96089.38;;;9.43
20867;BMP280;10593;48.398;10.698;2023-03-05T10:01:37;96087.66;;;9.45
20867;BMP280;10593;48.398;10.698;2023-03-05T10:04:12;96080.78;;;9.45
20867;BMP280;10593;48.398;10.698;2023-03-05T10:09:44;96070.50;;;9.47
20867;BMP280;10593;48.398;10.698;2023-03-05T10:12:24;96072.19;;;9.48
20867;BMP280;10593;48.398;10.698;2023-03-05T10:14:53;96063.63;;;9.49
20867;BMP280;10593;48.398;10.698;2023-03-05T10:20:14;96055.00;;;9.53
20867;BMP280;10593;48.398;10.698;2023-03-05T10:26:04;96057.50;;;9.59
20867;BMP280;10593;48.398;10.698;2023-03-05T10:28:47;96053.16;;;9.61
20867;BMP280;10593;48.398;10.698;2023-03-05T10:34:38;96050.53;;;9.64
20867;BMP280;10593;48.398;10.698;2023-03-05T10:37:38;96040.28;;;9.65
20867;BMP280;10593;48.398;10.698;2023-03-05T10:40:45;96044.53;;;9.65
20867;BMP280;10593;48.398;10.698;2023-03-05T10:43:39;96031.66;;;9.68
20867;BMP280;10593;48.398;10.698;2023-03-05T10:46:21;96032.50;;;9.68
20867;BMP280;10593;48.398;10.698;2023-03-05T10:49:04;96035.03;;;9.71
20867;BMP280;10593;48.398;10.698;2023-03-05T10:51:50;96024.69;;;9.74
20867;BMP280;10593;48.398;10.698;2023-03-05T10:54:30;96034.13;;;9.75
20867;BMP280;10593;48.398;10.698;2023-03-05T10:59:45;96018.59;;;9.80
20867;BMP280;10593;48.398;10.698;2023-03-05T11:02:12;96022.84;;;9.82
20867;BMP280;10593;48.398;10.698;2023-03-05T11:04:39;96016.81;;;9.85
20867;BMP280;10593;48.398;10.698;2023-03-05T11:07:31;96020.19;;;9.87
20867;BMP280;10593;48.398;10.698;2023-03-05T11:12:32;96008.16;;;9.90
20867;BMP280;10593;48.398;10.698;2023-03-05T11:17:41;96012.38;;;9.93
20867;BMP280;10593;48.398;10.698;2023-03-05T11:26:02;96002.06;;;9.96
20867;BMP280;10593;48.398;10.698;2023-03-05T11:28:34;95996.06;;;9.97
20867;BMP280;10593;48.398;10.698;2023-03-05T11:34:02;95995.13;;;10.01
20867;BMP280;10593;48.398;10.698;2023-03-05T11:36:40;95980.56;;;10.01
20867;BMP280;10593;48.398;10.698;2023-03-05T11:42:02;95974.56;;;10.04
20867;BMP280;10593;48.398;10.698;2023-03-05T11:44:51;95971.13;;;10.05
20867;BMP280;10593;48.398;10.698;2023-03-05T11:47:41;95972.78;;;10.06
20867;BMP280;10593;48.398;10.698;2023-03-05T11:50:23;95966.78;;;10.07
20867;BMP280;10593;48.398;10.698;2023-03-05T11:53:02;95966.78;;;10.07
20867;BMP280;10593;48.398;10.698;2023-03-05T11:55:44;95965.06;;;10.09
20867;BMP280;10593;48.398;10.698;2023-03-05T11:58:34;95966.75;;;10.10
20867;BMP280;10593;48.398;10.698;2023-03-05T12:01:23;95962.44;;;10.10
20867;BMP280;10593;48.398;10.698;2023-03-05T12:03:51;95950.47;;;10.11
20867;BMP280;10593;48.398;10.698;2023-03-05T12:06:43;95946.16;;;10.13
20867;BMP280;10593;48.398;10.698;2023-03-05T12:12:47;95943.53;;;10.14
20867;BMP280;10593;48.398;10.698;2023-03-05T12:15:48;95942.63;;;10.17
20867;BMP280;10593;48.398;10.698;2023-03-05T12:21:40;95934.03;;;10.18
20867;BMP280;10593;48.398;10.698;2023-03-05T12:29:49;95914.28;;;10.23
20867;BMP280;10593;48.398;10.698;2023-03-05T12:34:55;95911.63;;;10.26
20867;BMP280;10593;48.398;10.698;2023-03-05T12:53:08;95890.84;;;10.36
20867;BMP280;10593;48.398;10.698;2023-03-05T12:58:21;95877.09;;;10.38
20867;BMP280;10593;48.398;10.698;2023-03-05T13:00:58;95871.97;;;10.38
20867;BMP280;10593;48.398;10.698;2023-03-05T13:03:34;95874.47;;;10.41
20867;BMP280;10593;48.398;10.698;2023-03-05T13:06:02;95869.31;;;10.41
20867;BMP280;10593;48.398;10.698;2023-03-05T13:08:35;95863.28;;;10.44
20867;BMP280;10593;48.398;10.698;2023-03-05T13:11:17;95863.28;;;10.44
20867;BMP280;10593;48.398;10.698;2023-03-05T13:13:46;95863.22;;;10.45
20867;BMP280;10593;48.398;10.698;2023-03-05T13:16:25;95863.19;;;10.47
20867;BMP280;10593;48.398;10.698;2023-03-05T13:18:57;95861.47;;;10.47
20867;BMP280;10593;48.398;10.698;2023-03-05T13:21:30;95858.03;;;10.48
20867;BMP280;10593;48.398;10.698;2023-03-05T13:24:01;95861.44;;;10.49
20867;BMP280;10593;48.398;10.698;2023-03-05T13:26:39;95857.16;;;10.49
20867;BMP280;10593;48.398;10.698;2023-03-05T13:29:20;95857.97;;;10.51
20867;BMP280;10593;48.398;10.698;2023-03-05T13:31:59;95853.72;;;10.50
20867;BMP280;10593;48.398;10.698;2023-03-05T13:34:33;95849.38;;;10.52
20867;BMP280;10593;48.398;10.698;2023-03-05T13:37:16;95850.19;;;10.53
20867;BMP280;10593;48.398;10.698;2023-03-05T13:39:58;95849.38;;;10.52
20867;BMP280;10593;48.398;10.698;2023-03-05T13:42:30;95847.59;;;10.54
20867;BMP280;10593;48.398;10.698;2023-03-05T13:45:01;95851.00;;;10.55
20867;BMP280;10593;48.398;10.698;2023-03-05T13:47:30;95850.16;;;10.56
20867;BMP280;10593;48.398;10.698;2023-03-05T13:50:06;95845.84;;;10.56
20867;BMP280;10593;48.398;10.698;2023-03-05T13:52:36;95842.38;;;10.57
20867;BMP280;10593;48.398;10.698;2023-03-05T13:55:12;95847.50;;;10.59
20867;BMP280;10593;48.398;10.698;2023-03-05T13:57:45;95838.06;;;10.59
20867;BMP280;10593;48.398;10.698;2023-03-05T14:00:32;95837.16;;;10.60
20867;BMP280;10593;48.398;10.698;2023-03-05T14:03:21;95835.47;;;10.59
20867;BMP280;10593;48.398;10.698;2023-03-05T14:05:48;95832.88;;;10.61
20867;BMP280;10593;48.398;10.698;2023-03-05T14:08:24;95826.88;;;10.60
20867;BMP280;10593;48.398;10.698;2023-03-05T14:10:52;95826.00;;;10.61
20867;BMP280;10593;48.398;10.698;2023-03-05T14:13:23;95819.16;;;10.62
20867;BMP280;10593;48.398;10.698;2023-03-05T14:16:09;95816.56;;;10.63
20867;BMP280;10593;48.398;10.698;2023-03-05T14:18:36;95823.41;;;10.63
20867;BMP280;10593;48.398;10.698;2023-03-05T14:21:10;95816.56;;;10.63
20867;BMP280;10593;48.398;10.698;2023-03-05T14:23:51;95815.69;;;10.64
20867;BMP280;10593;48.398;10.698;2023-03-05T14:31:48;95812.22;;;10.65
20867;BMP280;10593;48.398;10.698;2023-03-05T14:34:28;95814.75;;;10.67
20867;BMP280;10593;48.398;10.698;2023-03-05T14:37:17;95807.91;;;10.66
20867;BMP280;10593;48.398;10.698;2023-03-05T14:39:59;95809.59;;;10.67
20867;BMP280;10593;48.398;10.698;2023-03-05T14:45:18;95797.63;;;10.67
20867;BMP280;10593;48.398;10.698;2023-03-05T14:47:46;95795.88;;;10.68
20867;BMP280;10593;48.398;10.698;2023-03-05T14:50:33;95794.16;;;10.68
20867;BMP280;10593;48.398;10.698;2023-03-05T14:53:06;95793.31;;;10.68
20867;BMP280;10593;48.398;10.698;2023-03-05T14:55:31;95788.16;;;10.68
20867;BMP280;10593;48.398;10.698;2023-03-05T14:58:15;95789.03;;;10.68
20867;BMP280;10593;48.398;10.698;2023-03-05T15:00:42;95775.31;;;10.68
20867;BMP280;10593;48.398;10.698;2023-03-05T15:03:13;95777.03;;;10.69
20867;BMP280;10593;48.398;10.698;2023-03-05T15:05:41;95774.41;;;10.70
20867;BMP280;10593;48.398;10.698;2023-03-05T15:08:23;95773.59;;;10.68
20867;BMP280;10593;48.398;10.698;2023-03-05T15:10:51;95775.28;;;10.69
20867;BMP280;10593;48.398;10.698;2023-03-05T15:13:18;95771.84;;;10.70
20867;BMP280;10593;48.398;10.698;2023-03-05T15:15:44;95765.88;;;10.70
20867;BMP280;10593;48.398;10.698;2023-03-05T15:18:17;95761.56;;;10.70
20867;BMP280;10593;48.398;10.698;2023-03-05T15:20:45;95753.84;;;10.70
20867;BMP280;10593;48.398;10.698;2023-03-05T15:23:13;95754.72;;;10.71
20867;BMP280;10593;48.398;10.698;2023-03-05T15:25:40;95751.25;;;10.72
20867;BMP280;10593;48.398;10.698;2023-03-05T15:28:06;95742.69;;;10.71
20867;BMP280;10593;48.398;10.698;2023-03-05T15:30:35;95745.22;;;10.73
20867;BMP280;10593;48.398;10.698;2023-03-05T15:33:09;95742.66;;;10.73
20867;BMP280;10593;48.398;10.698;2023-03-05T15:35:35;95736.66;;;10.72
20867;BMP280;10593;48.398;10.698;2023-03-05T15:38:01;95735.84;;;10.72
20867;BMP280;10593;48.398;10.698;2023-03-05T15:40:27;95728.13;;;10.72
20867;BMP280;10593;48.398;10.698;2023-03-05T15:42:55;95726.38;;;10.72